sensor_id;sensor_type;location;lat;lon;timestamp;P1;durP1;ratioP1;P2;durP2;ratioP2
74227;SDS011;62587;52.352;5.006;2022-08-21T00:02:16;4.13;;;2.50;;
74227;SDS011;62587;52.352;5.006;2022-08-21T00:04:42;5.50;;;2.38;;
74227;SDS011;62587;52.352;5.006;2022-08-21T00:07:08;4.45;;;2.45;;
74227;SDS011;62587;52.352;5.006;2022-08-21T00:09:33;5.45;;;2.92;;
74227;SDS011;62587;52.352;5.006;2022-08-21T00:11:59;4.88;;;2.50;;
74227;SDS011;62587;52.352;5.006;2022-08-21T00:14:24;5.00;;;2.27;;
74227;SDS011;62587;52.352;5.006;2022-08-21T00:16:49;3.92;;;2.10;;
74227;SDS011;62587;52.352;5.006;2022-08-21T00:19:15;4.93;;;2.10;;
74227;SDS011;62587;52.352;5.006;2022-08-21T00:21:41;3.88;;;2.50;;
74227;SDS011;62587;52.352;5.006;2022-08-21T00:24:06;4.82;;;2.60;;
74227;SDS011;62587;52.352;5.006;2022-08-21T00:26:31;3.22;;;2.00;;
74227;SDS011;62587;52.352;5.006;2022-08-21T00:28:57;4.22;;;1.98;;
74227;SDS011;62587;52.352;5.006;2022-08-21T00:31:22;4.10;;;2.30;;
74227;SDS011;62587;52.352;5.006;2022-08-21T00:33:47;5.53;;;2.23;;
74227;SDS011;62587;52.352;5.006;2022-08-21T00:36:13;3.05;;;2.00;;
74227;SDS011;62587;52.352;5.006;2022-08-21T00:38:39;3.60;;;2.00;;
74227;SDS011;62587;52.352;5.006;2022-08-21T00:41:05;4.00;;;2.03;;
74227;SDS011;62587;52.352;5.006;2022-08-21T00:43:34;3.17;;;1.90;;
74227;SDS011;62587;52.352;5.006;2022-08-21T00:46:02;3.90;;;2.30;;
74227;SDS011;62587;52.352;5.006;2022-08-21T00:48:29;3.42;;;1.92;;
74227;SDS011;62587;52.352;5.006;2022-08-21T00:50:56;3.92;;;2.08;;
74227;SDS011;62587;52.352;5.006;2022-08-21T00:53:24;3.63;;;2.30;;
74227;SDS011;62587;52.352;5.006;2022-08-21T00:55:50;3.58;;;1.90;;
74227;SDS011;62587;52.352;5.006;2022-08-21T00:58:17;3.38;;;1.90;;
74227;SDS011;62587;52.352;5.006;2022-08-21T01:00:44;3.90;;;2.20;;
74227;SDS011;62587;52.352;5.006;2022-08-21T01:03:15;4.03;;;2.10;;
74227;SDS011;62587;52.352;5.006;2022-08-21T01:05:43;5.03;;;2.25;;
74227;SDS011;62587;52.352;5.006;2022-08-21T01:08:09;3.45;;;1.88;;
74227;SDS011;62587;52.352;5.006;2022-08-21T01:10:35;5.03;;;1.98;;
74227;SDS011;62587;52.352;5.006;2022-08-21T01:13:02;3.63;;;2.38;;
74227;SDS011;62587;52.352;5.006;2022-08-21T01:15:30;3.28;;;1.85;;
74227;SDS011;62587;52.352;5.006;2022-08-21T01:17:58;2.88;;;1.88;;
74227;SDS011;62587;52.352;5.006;2022-08-21T01:20:24;2.90;;;1.77;;
74227;SDS011;62587;52.352;5.006;2022-08-21T01:22:50;3.58;;;1.90;;
74227;SDS011;62587;52.352;5.006;2022-08-21T01:25:16;4.07;;;2.00;;
74227;SDS011;62587;52.352;5.006;2022-08-21T01:27:44;4.90;;;1.95;;
74227;SDS011;62587;52.352;5.006;2022-08-21T01:32:42;3.33;;;1.95;;
74227;SDS011;62587;52.352;5.006;2022-08-21T01:35:09;2.97;;;1.80;;
74227;SDS011;62587;52.352;5.006;2022-08-21T01:37:36;2.55;;;1.70;;
74227;SDS011;62587;52.352;5.006;2022-08-21T01:40:03;4.57;;;1.70;;
74227;SDS011;62587;52.352;5.006;2022-08-21T01:42:30;3.33;;;1.70;;
74227;SDS011;62587;52.352;5.006;2022-08-21T01:44:55;4.93;;;2.05;;
74227;SDS011;62587;52.352;5.006;2022-08-21T01:47:21;3.50;;;2.03;;
74227;SDS011;62587;52.352;5.006;2022-08-21T01:49:47;4.15;;;2.00;;
74227;SDS011;62587;52.352;5.006;2022-08-21T01:52:12;3.20;;;1.75;;
74227;SDS011;62587;52.352;5.006;2022-08-21T01:54:38;3.90;;;1.80;;
74227;SDS011;62587;52.352;5.006;2022-08-21T01:57:04;3.78;;;1.83;;
74227;SDS011;62587;52.352;5.006;2022-08-21T01:59:31;3.58;;;2.05;;
74227;SDS011;62587;52.352;5.006;2022-08-21T02:01:56;4.82;;;2.00;;
74227;SDS011;62587;52.352;5.006;2022-08-21T02:04:22;4.32;;;1.90;;
74227;SDS011;62587;52.352;5.006;2022-08-21T02:06:48;4.63;;;2.08;;
74227;SDS011;62587;52.352;5.006;2022-08-21T02:09:14;3.92;;;1.60;;
74227;SDS011;62587;52.352;5.006;2022-08-21T02:11:39;2.90;;;1.60;;
74227;SDS011;62587;52.352;5.006;2022-08-21T02:14:06;3.65;;;1.83;;
74227;SDS011;62587;52.352;5.006;2022-08-21T02:16:36;4.95;;;1.70;;
74227;SDS011;62587;52.352;5.006;2022-08-21T02:19:03;5.25;;;1.88;;
74227;SDS011;62587;52.352;5.006;2022-08-21T02:21:29;4.10;;;2.00;;
74227;SDS011;62587;52.352;5.006;2022-08-21T02:23:54;3.75;;;1.98;;
74227;SDS011;62587;52.352;5.006;2022-08-21T02:26:19;2.92;;;1.88;;
74227;SDS011;62587;52.352;5.006;2022-08-21T02:28:45;3.53;;;2.17;;
74227;SDS011;62587;52.352;5.006;2022-08-21T02:31:10;3.47;;;1.90;;
74227;SDS011;62587;52.352;5.006;2022-08-21T02:33:36;4.65;;;1.83;;
74227;SDS011;62587;52.352;5.006;2022-08-21T02:36:02;5.13;;;2.05;;
74227;SDS011;62587;52.352;5.006;2022-08-21T02:38:30;3.08;;;1.77;;
74227;SDS011;62587;52.352;5.006;2022-08-21T02:40:58;3.63;;;1.75;;
74227;SDS011;62587;52.352;5.006;2022-08-21T02:43:25;5.18;;;1.65;;
74227;SDS011;62587;52.352;5.006;2022-08-21T02:45:53;3.67;;;1.95;;
74227;SDS011;62587;52.352;5.006;2022-08-21T02:48:21;3.75;;;1.90;;
74227;SDS011;62587;52.352;5.006;2022-08-21T02:50:54;4.20;;;2.05;;
74227;SDS011;62587;52.352;5.006;2022-08-21T02:53:21;3.35;;;1.80;;
74227;SDS011;62587;52.352;5.006;2022-08-21T02:55:48;6.35;;;2.05;;
74227;SDS011;62587;52.352;5.006;2022-08-21T02:58:16;3.30;;;1.90;;
74227;SDS011;62587;52.352;5.006;2022-08-21T03:00:43;3.30;;;1.67;;
74227;SDS011;62587;52.352;5.006;2022-08-21T03:03:09;4.80;;;2.30;;
74227;SDS011;62587;52.352;5.006;2022-08-21T03:05:35;5.68;;;2.25;;
74227;SDS011;62587;52.352;5.006;2022-08-21T03:08:03;4.68;;;2.00;;
74227;SDS011;62587;52.352;5.006;2022-08-21T03:10:34;4.30;;;2.20;;
74227;SDS011;62587;52.352;5.006;2022-08-21T03:13:00;4.03;;;2.10;;
74227;SDS011;62587;52.352;5.006;2022-08-21T03:15:27;3.05;;;1.90;;
74227;SDS011;62587;52.352;5.006;2022-08-21T03:17:53;5.93;;;2.08;;
74227;SDS011;62587;52.352;5.006;2022-08-21T03:20:20;5.20;;;1.90;;
74227;SDS011;62587;52.352;5.006;2022-08-21T03:22:48;3.10;;;2.00;;
74227;SDS011;62587;52.352;5.006;2022-08-21T03:25:15;4.43;;;2.00;;
74227;SDS011;62587;52.352;5.006;2022-08-21T03:27:40;4.68;;;1.98;;
74227;SDS011;62587;52.352;5.006;2022-08-21T03:30:06;4.07;;;2.00;;
74227;SDS011;62587;52.352;5.006;2022-08-21T03:32:33;5.10;;;2.10;;
74227;SDS011;62587;52.352;5.006;2022-08-21T03:35:00;3.40;;;2.30;;
74227;SDS011;62587;52.352;5.006;2022-08-21T03:37:26;3.33;;;2.13;;
74227;SDS011;62587;52.352;5.006;2022-08-21T03:39:52;5.30;;;2.45;;
74227;SDS011;62587;52.352;5.006;2022-08-21T03:42:18;4.00;;;1.92;;
74227;SDS011;62587;52.352;5.006;2022-08-21T03:44:43;3.78;;;2.00;;
74227;SDS011;62587;52.352;5.006;2022-08-21T03:47:09;4.07;;;2.45;;
74227;SDS011;62587;52.352;5.006;2022-08-21T03:49:34;3.70;;;1.90;;
74227;SDS011;62587;52.352;5.006;2022-08-21T03:52:01;5.07;;;2.47;;
74227;SDS011;62587;52.352;5.006;2022-08-21T03:54:26;3.80;;;2.20;;
74227;SDS011;62587;52.352;5.006;2022-08-21T03:56:51;3.93;;;2.30;;
74227;SDS011;62587;52.352;5.006;2022-08-21T03:59:17;4.80;;;2.20;;
74227;SDS011;62587;52.352;5.006;2022-08-21T04:01:55;3.97;;;2.22;;
74227;SDS011;62587;52.352;5.006;2022-08-21T04:04:23;4.15;;;2.00;;
74227;SDS011;62587;52.352;5.006;2022-08-21T04:06:49;3.50;;;2.05;;
74227;SDS011;62587;52.352;5.006;2022-08-21T04:09:15;3.78;;;1.70;;
74227;SDS011;62587;52.352;5.006;2022-08-21T04:11:42;4.50;;;2.00;;
74227;SDS011;62587;52.352;5.006;2022-08-21T04:14:07;3.80;;;2.22;;
74227;SDS011;62587;52.352;5.006;2022-08-21T04:16:33;2.88;;;1.85;;
74227;SDS011;62587;52.352;5.006;2022-08-21T04:18:58;4.95;;;2.25;;
74227;SDS011;62587;52.352;5.006;2022-08-21T04:21:24;3.50;;;2.28;;
74227;SDS011;62587;52.352;5.006;2022-08-21T04:23:49;4.13;;;2.20;;
74227;SDS011;62587;52.352;5.006;2022-08-21T04:26:15;3.85;;;1.95;;
74227;SDS011;62587;52.352;5.006;2022-08-21T04:28:40;3.47;;;1.90;;
74227;SDS011;62587;52.352;5.006;2022-08-21T04:31:06;3.35;;;1.90;;
74227;SDS011;62587;52.352;5.006;2022-08-21T04:33:32;3.95;;;2.28;;
74227;SDS011;62587;52.352;5.006;2022-08-21T04:35:58;4.22;;;2.20;;
74227;SDS011;62587;52.352;5.006;2022-08-21T04:38:23;3.70;;;2.20;;
74227;SDS011;62587;52.352;5.006;2022-08-21T04:40:49;4.40;;;2.00;;
74227;SDS011;62587;52.352;5.006;2022-08-21T04:43:15;4.10;;;1.98;;
74227;SDS011;62587;52.352;5.006;2022-08-21T04:45:42;4.38;;;1.77;;
74227;SDS011;62587;52.352;5.006;2022-08-21T04:48:11;3.50;;;1.90;;
74227;SDS011;62587;52.352;5.006;2022-08-21T04:53:19;3.83;;;1.85;;
74227;SDS011;62587;52.352;5.006;2022-08-21T04:55:47;3.78;;;1.80;;
74227;SDS011;62587;52.352;5.006;2022-08-21T04:58:13;3.83;;;1.83;;
74227;SDS011;62587;52.352;5.006;2022-08-21T05:00:42;4.50;;;2.13;;
74227;SDS011;62587;52.352;5.006;2022-08-21T05:03:09;4.78;;;1.70;;
74227;SDS011;62587;52.352;5.006;2022-08-21T05:05:36;3.92;;;1.83;;
74227;SDS011;62587;52.352;5.006;2022-08-21T05:08:03;3.50;;;1.83;;
74227;SDS011;62587;52.352;5.006;2022-08-21T05:10:29;2.55;;;1.60;;
74227;SDS011;62587;52.352;5.006;2022-08-21T05:12:56;4.95;;;1.63;;
74227;SDS011;62587;52.352;5.006;2022-08-21T05:15:22;4.28;;;1.80;;
74227;SDS011;62587;52.352;5.006;2022-08-21T05:17:47;4.32;;;1.67;;
74227;SDS011;62587;52.352;5.006;2022-08-21T05:20:13;5.18;;;1.70;;
74227;SDS011;62587;52.352;5.006;2022-08-21T05:22:39;2.30;;;1.45;;
74227;SDS011;62587;52.352;5.006;2022-08-21T05:25:05;4.32;;;1.63;;
74227;SDS011;62587;52.352;5.006;2022-08-21T05:27:31;3.08;;;1.80;;
74227;SDS011;62587;52.352;5.006;2022-08-21T05:29:57;4.47;;;1.40;;
74227;SDS011;62587;52.352;5.006;2022-08-21T05:32:22;3.55;;;1.63;;
74227;SDS011;62587;52.352;5.006;2022-08-21T05:34:48;4.10;;;1.70;;
74227;SDS011;62587;52.352;5.006;2022-08-21T05:37:13;3.28;;;1.60;;
74227;SDS011;62587;52.352;5.006;2022-08-21T05:39:39;3.78;;;1.52;;
74227;SDS011;62587;52.352;5.006;2022-08-21T05:42:04;3.03;;;1.55;;
74227;SDS011;62587;52.352;5.006;2022-08-21T05:44:30;3.35;;;1.27;;
74227;SDS011;62587;52.352;5.006;2022-08-21T05:47:01;3.75;;;1.35;;
74227;SDS011;62587;52.352;5.006;2022-08-21T05:49:31;5.30;;;1.80;;
74227;SDS011;62587;52.352;5.006;2022-08-21T05:51:57;3.92;;;1.48;;
74227;SDS011;62587;52.352;5.006;2022-08-21T05:54:22;4.28;;;1.50;;
74227;SDS011;62587;52.352;5.006;2022-08-21T05:56:48;3.25;;;1.38;;
74227;SDS011;62587;52.352;5.006;2022-08-21T05:59:13;3.38;;;1.55;;
74227;SDS011;62587;52.352;5.006;2022-08-21T06:01:39;4.25;;;1.40;;
74227;SDS011;62587;52.352;5.006;2022-08-21T06:04:05;3.33;;;1.70;;
74227;SDS011;62587;52.352;5.006;2022-08-21T06:06:32;3.85;;;1.50;;
74227;SDS011;62587;52.352;5.006;2022-08-21T06:08:58;2.38;;;1.30;;
74227;SDS011;62587;52.352;5.006;2022-08-21T06:11:23;4.30;;;1.40;;
74227;SDS011;62587;52.352;5.006;2022-08-21T06:13:48;3.23;;;1.50;;
74227;SDS011;62587;52.352;5.006;2022-08-21T06:16:14;3.53;;;1.40;;
74227;SDS011;62587;52.352;5.006;2022-08-21T06:18:41;2.67;;;1.40;;
74227;SDS011;62587;52.352;5.006;2022-08-21T06:21:08;4.72;;;1.60;;
74227;SDS011;62587;52.352;5.006;2022-08-21T06:23:34;4.38;;;1.63;;
74227;SDS011;62587;52.352;5.006;2022-08-21T06:26:03;2.90;;;1.23;;
74227;SDS011;62587;52.352;5.006;2022-08-21T06:28:30;3.70;;;1.40;;
74227;SDS011;62587;52.352;5.006;2022-08-21T06:30:56;6.00;;;1.70;;
74227;SDS011;62587;52.352;5.006;2022-08-21T06:33:21;2.58;;;1.42;;
74227;SDS011;62587;52.352;5.006;2022-08-21T06:35:47;3.88;;;1.42;;
74227;SDS011;62587;52.352;5.006;2022-08-21T06:38:12;3.65;;;1.63;;
74227;SDS011;62587;52.352;5.006;2022-08-21T06:40:37;3.75;;;1.40;;
74227;SDS011;62587;52.352;5.006;2022-08-21T06:43:11;4.93;;;1.63;;
74227;SDS011;62587;52.352;5.006;2022-08-21T06:45:39;3.40;;;1.33;;
74227;SDS011;62587;52.352;5.006;2022-08-21T06:48:05;3.70;;;1.48;;
74227;SDS011;62587;52.352;5.006;2022-08-21T06:50:32;4.72;;;1.60;;
74227;SDS011;62587;52.352;5.006;2022-08-21T06:53:06;5.30;;;1.60;;
74227;SDS011;62587;52.352;5.006;2022-08-21T06:55:34;4.65;;;1.33;;
74227;SDS011;62587;52.352;5.006;2022-08-21T06:58:00;4.97;;;1.50;;
74227;SDS011;62587;52.352;5.006;2022-08-21T07:00:27;3.00;;;1.25;;
74227;SDS011;62587;52.352;5.006;2022-08-21T07:02:53;4.97;;;1.63;;
74227;SDS011;62587;52.352;5.006;2022-08-21T07:05:18;4.20;;;1.48;;
74227;SDS011;62587;52.352;5.006;2022-08-21T07:07:44;4.32;;;1.60;;
74227;SDS011;62587;52.352;5.006;2022-08-21T07:10:10;5.75;;;1.70;;
74227;SDS011;62587;52.352;5.006;2022-08-21T07:12:36;4.20;;;1.40;;
74227;SDS011;62587;52.352;5.006;2022-08-21T07:15:01;3.50;;;1.50;;
74227;SDS011;62587;52.352;5.006;2022-08-21T07:17:26;3.35;;;1.27;;
74227;SDS011;62587;52.352;5.006;2022-08-21T07:19:52;4.60;;;1.50;;
74227;SDS011;62587;52.352;5.006;2022-08-21T07:22:18;3.78;;;1.35;;
74227;SDS011;62587;52.352;5.006;2022-08-21T07:24:45;4.60;;;1.48;;
74227;SDS011;62587;52.352;5.006;2022-08-21T07:27:11;3.42;;;1.48;;
74227;SDS011;62587;52.352;5.006;2022-08-21T07:29:36;3.22;;;1.23;;
74227;SDS011;62587;52.352;5.006;2022-08-21T07:32:02;4.40;;;1.52;;
74227;SDS011;62587;52.352;5.006;2022-08-21T07:34:27;4.15;;;1.48;;
74227;SDS011;62587;52.352;5.006;2022-08-21T07:36:53;4.95;;;1.70;;
74227;SDS011;62587;52.352;5.006;2022-08-21T07:39:18;5.37;;;1.50;;
74227;SDS011;62587;52.352;5.006;2022-08-21T07:41:43;6.10;;;1.45;;
74227;SDS011;62587;52.352;5.006;2022-08-21T07:44:08;6.00;;;1.80;;
74227;SDS011;62587;52.352;5.006;2022-08-21T07:46:34;4.60;;;1.70;;
74227;SDS011;62587;52.352;5.006;2022-08-21T07:48:59;4.53;;;1.60;;
74227;SDS011;62587;52.352;5.006;2022-08-21T07:51:25;4.43;;;1.60;;
74227;SDS011;62587;52.352;5.006;2022-08-21T07:53:53;5.47;;;1.75;;
74227;SDS011;62587;52.352;5.006;2022-08-21T07:58:46;3.65;;;1.50;;
74227;SDS011;62587;52.352;5.006;2022-08-21T08:01:12;4.68;;;1.48;;
74227;SDS011;62587;52.352;5.006;2022-08-21T08:03:38;5.88;;;1.75;;
74227;SDS011;62587;52.352;5.006;2022-08-21T08:06:04;6.93;;;1.85;;
74227;SDS011;62587;52.352;5.006;2022-08-21T08:08:31;8.07;;;1.83;;
74227;SDS011;62587;52.352;5.006;2022-08-21T08:10:57;6.20;;;1.98;;
74227;SDS011;62587;52.352;5.006;2022-08-21T08:13:24;6.63;;;1.80;;
74227;SDS011;62587;52.352;5.006;2022-08-21T08:15:50;4.63;;;2.45;;
74227;SDS011;62587;52.352;5.006;2022-08-21T08:18:16;5.13;;;1.70;;
74227;SDS011;62587;52.352;5.006;2022-08-21T08:20:41;6.78;;;2.00;;
74227;SDS011;62587;52.352;5.006;2022-08-21T08:23:09;7.70;;;2.00;;
74227;SDS011;62587;52.352;5.006;2022-08-21T08:25:35;5.85;;;2.30;;
74227;SDS011;62587;52.352;5.006;2022-08-21T08:28:01;6.47;;;1.80;;
74227;SDS011;62587;52.352;5.006;2022-08-21T08:30:26;4.28;;;1.60;;
74227;SDS011;62587;52.352;5.006;2022-08-21T08:32:51;5.85;;;2.05;;
74227;SDS011;62587;52.352;5.006;2022-08-21T08:35:17;7.75;;;1.85;;
74227;SDS011;62587;52.352;5.006;2022-08-21T08:37:43;6.47;;;1.90;;
74227;SDS011;62587;52.352;5.006;2022-08-21T08:40:14;6.68;;;1.90;;
74227;SDS011;62587;52.352;5.006;2022-08-21T08:42:54;5.25;;;1.52;;
74227;SDS011;62587;52.352;5.006;2022-08-21T08:45:20;7.57;;;2.10;;
74227;SDS011;62587;52.352;5.006;2022-08-21T08:47:52;5.03;;;1.75;;
74227;SDS011;62587;52.352;5.006;2022-08-21T08:50:40;6.75;;;2.03;;
74227;SDS011;62587;52.352;5.006;2022-08-21T08:53:56;5.72;;;1.77;;
74227;SDS011;62587;52.352;5.006;2022-08-21T08:56:06;4.90;;;1.70;;
74227;SDS011;62587;52.352;5.006;2022-08-21T08:58:33;5.28;;;1.92;;
74227;SDS011;62587;52.352;5.006;2022-08-21T09:01:05;11.95;;;3.15;;
74227;SDS011;62587;52.352;5.006;2022-08-21T09:03:35;11.98;;;3.20;;
74227;SDS011;62587;52.352;5.006;2022-08-21T09:08:32;10.10;;;3.38;;
74227;SDS011;62587;52.352;5.006;2022-08-21T09:16:55;7.20;;;3.17;;
74227;SDS011;62587;52.352;5.006;2022-08-21T09:19:36;8.32;;;3.25;;
74227;SDS011;62587;52.352;5.006;2022-08-21T09:25:05;8.73;;;3.08;;
74227;SDS011;62587;52.352;5.006;2022-08-21T09:27:39;7.85;;;2.70;;
74227;SDS011;62587;52.352;5.006;2022-08-21T09:30:05;9.23;;;2.83;;
74227;SDS011;62587;52.352;5.006;2022-08-21T09:32:33;9.65;;;2.70;;
74227;SDS011;62587;52.352;5.006;2022-08-21T09:37:46;8.15;;;2.63;;
74227;SDS011;62587;52.352;5.006;2022-08-21T09:42:58;7.28;;;2.30;;
74227;SDS011;62587;52.352;5.006;2022-08-21T09:45:27;6.30;;;1.70;;
74227;SDS011;62587;52.352;5.006;2022-08-21T09:47:53;9.18;;;2.60;;
74227;SDS011;62587;52.352;5.006;2022-08-21T09:50:22;8.48;;;1.90;;
74227;SDS011;62587;52.352;5.006;2022-08-21T09:52:54;10.10;;;2.13;;
74227;SDS011;62587;52.352;5.006;2022-08-21T09:55:32;11.13;;;2.58;;
74227;SDS011;62587;52.352;5.006;2022-08-21T09:58:29;6.95;;;2.05;;
74227;SDS011;62587;52.352;5.006;2022-08-21T10:01:00;8.45;;;2.30;;
74227;SDS011;62587;52.352;5.006;2022-08-21T10:03:27;5.93;;;2.20;;
74227;SDS011;62587;52.352;5.006;2022-08-21T10:05:58;6.80;;;2.22;;
74227;SDS011;62587;52.352;5.006;2022-08-21T10:08:30;5.85;;;1.80;;
74227;SDS011;62587;52.352;5.006;2022-08-21T10:11:08;4.47;;;1.90;;
74227;SDS011;62587;52.352;5.006;2022-08-21T10:16:13;5.95;;;2.08;;
74227;SDS011;62587;52.352;5.006;2022-08-21T10:21:36;4.65;;;1.83;;
74227;SDS011;62587;52.352;5.006;2022-08-21T10:25:12;6.28;;;1.90;;
74227;SDS011;62587;52.352;5.006;2022-08-21T10:27:20;5.75;;;2.20;;
74227;SDS011;62587;52.352;5.006;2022-08-21T10:35:27;5.43;;;1.95;;
74227;SDS011;62587;52.352;5.006;2022-08-21T10:38:01;5.20;;;2.05;;
74227;SDS011;62587;52.352;5.006;2022-08-21T10:46:14;5.57;;;2.00;;
74227;SDS011;62587;52.352;5.006;2022-08-21T10:49:02;4.32;;;1.90;;
74227;SDS011;62587;52.352;5.006;2022-08-21T10:55:06;4.47;;;1.95;;
74227;SDS011;62587;52.352;5.006;2022-08-21T10:57:40;5.05;;;2.20;;
74227;SDS011;62587;52.352;5.006;2022-08-21T11:00:14;4.15;;;2.00;;
74227;SDS011;62587;52.352;5.006;2022-08-21T11:02:47;4.38;;;2.17;;
74227;SDS011;62587;52.352;5.006;2022-08-21T11:05:31;5.15;;;2.28;;
74227;SDS011;62587;52.352;5.006;2022-08-21T11:08:06;4.55;;;1.80;;
74227;SDS011;62587;52.352;5.006;2022-08-21T11:10:36;5.57;;;2.00;;
74227;SDS011;62587;52.352;5.006;2022-08-21T11:13:08;4.00;;;2.00;;
74227;SDS011;62587;52.352;5.006;2022-08-21T11:15:43;4.70;;;2.15;;
74227;SDS011;62587;52.352;5.006;2022-08-21T11:20:56;3.85;;;1.95;;
74227;SDS011;62587;52.352;5.006;2022-08-21T11:23:44;5.40;;;2.00;;
74227;SDS011;62587;52.352;5.006;2022-08-21T11:26:15;4.20;;;1.63;;
74227;SDS011;62587;52.352;5.006;2022-08-21T11:28:52;4.03;;;1.83;;
74227;SDS011;62587;52.352;5.006;2022-08-21T11:37:19;4.95;;;1.95;;
74227;SDS011;62587;52.352;5.006;2022-08-21T11:40:06;3.53;;;1.80;;
74227;SDS011;62587;52.352;5.006;2022-08-21T11:42:56;4.95;;;1.80;;
74227;SDS011;62587;52.352;5.006;2022-08-21T11:45:42;3.20;;;1.70;;
74227;SDS011;62587;52.352;5.006;2022-08-21T11:50:46;5.20;;;2.05;;
74227;SDS011;62587;52.352;5.006;2022-08-21T11:53:22;4.13;;;1.70;;
74227;SDS011;62587;52.352;5.006;2022-08-21T12:01:08;3.47;;;1.50;;
74227;SDS011;62587;52.352;5.006;2022-08-21T12:03:54;3.35;;;1.77;;
74227;SDS011;62587;52.352;5.006;2022-08-21T12:06:31;5.45;;;2.10;;
74227;SDS011;62587;52.352;5.006;2022-08-21T12:09:06;4.43;;;1.90;;
74227;SDS011;62587;52.352;5.006;2022-08-21T12:12:13;4.95;;;2.05;;
74227;SDS011;62587;52.352;5.006;2022-08-21T12:14:39;6.00;;;2.30;;
74227;SDS011;62587;52.352;5.006;2022-08-21T12:17:22;3.83;;;1.80;;
74227;SDS011;62587;52.352;5.006;2022-08-21T12:19:58;4.18;;;1.52;;
74227;SDS011;62587;52.352;5.006;2022-08-21T12:22:38;3.97;;;1.70;;
74227;SDS011;62587;52.352;5.006;2022-08-21T12:25:11;3.83;;;1.50;;
74227;SDS011;62587;52.352;5.006;2022-08-21T12:27:49;4.50;;;1.90;;
74227;SDS011;62587;52.352;5.006;2022-08-21T12:30:32;4.00;;;1.48;;
74227;SDS011;62587;52.352;5.006;2022-08-21T12:33:01;3.22;;;1.50;;
74227;SDS011;62587;52.352;5.006;2022-08-21T12:35:38;5.80;;;1.70;;
74227;SDS011;62587;52.352;5.006;2022-08-21T12:38:13;3.17;;;1.73;;
74227;SDS011;62587;52.352;5.006;2022-08-21T12:40:47;3.97;;;1.55;;
74227;SDS011;62587;52.352;5.006;2022-08-21T12:43:21;3.95;;;1.90;;
74227;SDS011;62587;52.352;5.006;2022-08-21T12:46:01;5.70;;;1.80;;
74227;SDS011;62587;52.352;5.006;2022-08-21T12:48:51;4.20;;;1.75;;
74227;SDS011;62587;52.352;5.006;2022-08-21T12:51:26;4.65;;;1.58;;
74227;SDS011;62587;52.352;5.006;2022-08-21T12:53:57;3.85;;;1.85;;
74227;SDS011;62587;52.352;5.006;2022-08-21T12:56:32;4.50;;;1.70;;
74227;SDS011;62587;52.352;5.006;2022-08-21T12:59:06;5.93;;;1.63;;
74227;SDS011;62587;52.352;5.006;2022-08-21T13:01:38;4.35;;;1.35;;
74227;SDS011;62587;52.352;5.006;2022-08-21T13:04:12;8.15;;;1.80;;
74227;SDS011;62587;52.352;5.006;2022-08-21T13:06:42;5.53;;;1.60;;
74227;SDS011;62587;52.352;5.006;2022-08-21T13:09:11;4.50;;;1.45;;
74227;SDS011;62587;52.352;5.006;2022-08-21T13:11:41;4.85;;;1.63;;
74227;SDS011;62587;52.352;5.006;2022-08-21T13:14:31;5.53;;;1.60;;
74227;SDS011;62587;52.352;5.006;2022-08-21T13:16:54;4.85;;;1.75;;
74227;SDS011;62587;52.352;5.006;2022-08-21T13:19:21;6.10;;;1.63;;
74227;SDS011;62587;52.352;5.006;2022-08-21T13:21:48;7.18;;;2.17;;
74227;SDS011;62587;52.352;5.006;2022-08-21T13:24:15;5.70;;;1.90;;
74227;SDS011;62587;52.352;5.006;2022-08-21T13:26:43;5.22;;;1.70;;
74227;SDS011;62587;52.352;5.006;2022-08-21T13:29:12;4.65;;;1.70;;
74227;SDS011;62587;52.352;5.006;2022-08-21T13:31:40;6.95;;;1.80;;
74227;SDS011;62587;52.352;5.006;2022-08-21T13:34:11;5.78;;;1.80;;
74227;SDS011;62587;52.352;5.006;2022-08-21T13:36:41;4.93;;;1.60;;
74227;SDS011;62587;52.352;5.006;2022-08-21T13:39:10;5.28;;;1.60;;
74227;SDS011;62587;52.352;5.006;2022-08-21T13:41:38;8.02;;;2.28;;
74227;SDS011;62587;52.352;5.006;2022-08-21T13:44:14;4.55;;;1.50;;
74227;SDS011;62587;52.352;5.006;2022-08-21T13:46:44;6.05;;;1.90;;
74227;SDS011;62587;52.352;5.006;2022-08-21T13:49:12;5.60;;;1.70;;
74227;SDS011;62587;52.352;5.006;2022-08-21T13:51:40;4.45;;;1.80;;
74227;SDS011;62587;52.352;5.006;2022-08-21T13:54:14;4.80;;;1.80;;
74227;SDS011;62587;52.352;5.006;2022-08-21T13:56:45;7.03;;;1.80;;
74227;SDS011;62587;52.352;5.006;2022-08-21T13:59:11;6.45;;;2.15;;
74227;SDS011;62587;52.352;5.006;2022-08-21T14:01:56;6.93;;;1.65;;
74227;SDS011;62587;52.352;5.006;2022-08-21T14:04:26;6.55;;;2.17;;
74227;SDS011;62587;52.352;5.006;2022-08-21T14:07:03;5.25;;;1.80;;
74227;SDS011;62587;52.352;5.006;2022-08-21T14:09:41;3.53;;;1.30;;
74227;SDS011;62587;52.352;5.006;2022-08-21T14:12:16;4.78;;;1.85;;
74227;SDS011;62587;52.352;5.006;2022-08-21T14:14:49;5.43;;;1.73;;
74227;SDS011;62587;52.352;5.006;2022-08-21T14:17:25;4.30;;;1.80;;
74227;SDS011;62587;52.352;5.006;2022-08-21T14:19:58;6.15;;;2.05;;
74227;SDS011;62587;52.352;5.006;2022-08-21T14:28:24;5.90;;;2.00;;
74227;SDS011;62587;52.352;5.006;2022-08-21T14:33:08;5.65;;;1.80;;
74227;SDS011;62587;52.352;5.006;2022-08-21T14:35:35;6.72;;;2.33;;
74227;SDS011;62587;52.352;5.006;2022-08-21T14:38:01;4.97;;;1.70;;
74227;SDS011;62587;52.352;5.006;2022-08-21T14:40:27;4.97;;;1.90;;
74227;SDS011;62587;52.352;5.006;2022-08-21T14:42:53;5.50;;;1.73;;
74227;SDS011;62587;52.352;5.006;2022-08-21T14:45:26;4.28;;;1.80;;
74227;SDS011;62587;52.352;5.006;2022-08-21T14:47:54;5.43;;;1.70;;
74227;SDS011;62587;52.352;5.006;2022-08-21T14:50:21;6.10;;;1.80;;
74227;SDS011;62587;52.352;5.006;2022-08-21T14:52:46;4.82;;;2.10;;
74227;SDS011;62587;52.352;5.006;2022-08-21T14:55:12;4.80;;;1.90;;
74227;SDS011;62587;52.352;5.006;2022-08-21T14:57:39;5.47;;;1.90;;
74227;SDS011;62587;52.352;5.006;2022-08-21T15:00:08;5.88;;;1.83;;
74227;SDS011;62587;52.352;5.006;2022-08-21T15:02:36;5.20;;;1.98;;
74227;SDS011;62587;52.352;5.006;2022-08-21T15:05:01;4.20;;;1.90;;
74227;SDS011;62587;52.352;5.006;2022-08-21T15:07:26;6.60;;;1.95;;
74227;SDS011;62587;52.352;5.006;2022-08-21T15:09:52;5.07;;;1.80;;
74227;SDS011;62587;52.352;5.006;2022-08-21T15:12:17;7.80;;;1.95;;
74227;SDS011;62587;52.352;5.006;2022-08-21T15:14:43;4.97;;;1.88;;
74227;SDS011;62587;52.352;5.006;2022-08-21T15:17:09;6.45;;;2.30;;
74227;SDS011;62587;52.352;5.006;2022-08-21T15:19:36;5.30;;;2.03;;
74227;SDS011;62587;52.352;5.006;2022-08-21T15:22:02;5.43;;;1.58;;
74227;SDS011;62587;52.352;5.006;2022-08-21T15:24:28;4.47;;;2.00;;
74227;SDS011;62587;52.352;5.006;2022-08-21T15:26:53;8.50;;;2.45;;
74227;SDS011;62587;52.352;5.006;2022-08-21T15:29:20;6.53;;;2.20;;
74227;SDS011;62587;52.352;5.006;2022-08-21T15:31:50;6.75;;;2.45;;
74227;SDS011;62587;52.352;5.006;2022-08-21T15:34:18;4.30;;;1.50;;
74227;SDS011;62587;52.352;5.006;2022-08-21T15:36:44;3.22;;;1.65;;
74227;SDS011;62587;52.352;5.006;2022-08-21T15:39:09;5.03;;;1.63;;
74227;SDS011;62587;52.352;5.006;2022-08-21T15:41:35;4.10;;;1.70;;
74227;SDS011;62587;52.352;5.006;2022-08-21T15:44:00;2.80;;;1.48;;
74227;SDS011;62587;52.352;5.006;2022-08-21T15:46:25;4.23;;;1.60;;
74227;SDS011;62587;52.352;5.006;2022-08-21T15:48:50;5.38;;;1.70;;
74227;SDS011;62587;52.352;5.006;2022-08-21T15:51:16;4.97;;;2.00;;
74227;SDS011;62587;52.352;5.006;2022-08-21T15:53:42;4.43;;;1.92;;
74227;SDS011;62587;52.352;5.006;2022-08-21T15:56:11;3.95;;;1.95;;
74227;SDS011;62587;52.352;5.006;2022-08-21T15:58:45;4.85;;;2.00;;
74227;SDS011;62587;52.352;5.006;2022-08-21T16:01:10;4.00;;;1.65;;
74227;SDS011;62587;52.352;5.006;2022-08-21T16:03:36;3.35;;;1.35;;
74227;SDS011;62587;52.352;5.006;2022-08-21T16:06:01;5.00;;;1.63;;
74227;SDS011;62587;52.352;5.006;2022-08-21T16:08:27;3.72;;;1.38;;